sensor_id;sensor_type;location;lat;lon;timestamp;pressure;altitude;pressure_sealevel;temperature;humidity
55077;BME280;40971;44.702;11.030;2022-07-12T00:01:04;101610.03;;;20.61;88.35
55077;BME280;40971;44.702;11.030;2022-07-12T00:03:30;101636.28;;;20.76;88.54
55077;BME280;40971;44.702;11.030;2022-07-12T00:05:56;101618.97;;;20.60;89.27
55077;BME280;40971;44.702;11.030;2022-07-12T00:08:21;101622.53;;;20.50;90.12
55077;BME280;40971;44.702;11.030;2022-07-12T00:10:47;101619.63;;;20.41;90.63
55077;BME280;40971;44.702;11.030;2022-07-12T00:13:12;101634.94;;;20.49;91.01
55077;BME280;40971;44.702;11.030;2022-07-12T00:15:38;101636.13;;;20.45;91.09
55077;BME280;40971;44.702;11.030;2022-07-12T00:18:04;101630.25;;;20.41;91.60
55077;BME280;40971;44.702;11.030;2022-07-12T00:20:29;101617.81;;;20.31;91.80
55077;BME280;40971;44.702;11.030;2022-07-12T00:22:55;101649.16;;;20.48;91.92
55077;BME280;40971;44.702;11.030;2022-07-12T00:25:21;101647.97;;;20.41;91.98
55077;BME280;40971;44.702;11.030;2022-07-12T00:27:46;101638.56;;;20.37;92.76
55077;BME280;40971;44.702;11.030;2022-07-12T00:30:12;101642.53;;;20.31;92.59
55077;BME280;40971;44.702;11.030;2022-07-12T00:32:37;101636.16;;;20.23;93.03
55077;BME280;40971;44.702;11.030;2022-07-12T00:35:05;101649.75;;;20.29;93.53
55077;BME280;40971;44.702;11.030;2022-07-12T00:37:31;101637.13;;;20.10;94.32
55077;BME280;40971;44.702;11.030;2022-07-12T00:39:57;101611.34;;;19.90;94.60
55077;BME280;40971;44.702;11.030;2022-07-12T00:42:23;101626.66;;;19.98;95.41
55077;BME280;40971;44.702;11.030;2022-07-12T00:44:48;101653.28;;;20.07;95.59
55077;BME280;40971;44.702;11.030;2022-07-12T00:47:35;101633.75;;;19.97;95.72
55077;BME280;40971;44.702;11.030;2022-07-12T00:50:11;101633.03;;;19.95;95.81
55077;BME280;40971;44.702;11.030;2022-07-12T00:52:37;101606.91;;;19.79;95.58
55077;BME280;40971;44.702;11.030;2022-07-12T00:55:05;101658.59;;;20.07;95.74
55077;BME280;40971;44.702;11.030;2022-07-12T00:57:32;101652.94;;;20.01;95.82
55077;BME280;40971;44.702;11.030;2022-07-12T00:59:57;101659.06;;;20.12;95.88
55077;BME280;40971;44.702;11.030;2022-07-12T01:02:23;101648.38;;;20.03;96.11
55077;BME280;40971;44.702;11.030;2022-07-12T01:04:50;101641.13;;;20.05;95.43
55077;BME280;40971;44.702;11.030;2022-07-12T01:07:16;101650.78;;;20.17;95.32
55077;BME280;40971;44.702;11.030;2022-07-12T01:09:42;101646.31;;;20.18;95.59
55077;BME280;40971;44.702;11.030;2022-07-12T01:12:09;101634.59;;;20.09;95.64
55077;BME280;40971;44.702;11.030;2022-07-12T01:14:34;101644.25;;;20.10;95.51
55077;BME280;40971;44.702;11.030;2022-07-12T01:17:00;101650.78;;;20.17;95.53
55077;BME280;40971;44.702;11.030;2022-07-12T01:19:27;101589.69;;;19.85;95.49
55077;BME280;40971;44.702;11.030;2022-07-12T01:21:53;101643.78;;;20.16;95.35
55077;BME280;40971;44.702;11.030;2022-07-12T01:24:22;101637.75;;;20.03;95.84
55077;BME280;40971;44.702;11.030;2022-07-12T01:26:49;101601.84;;;19.76;96.19
55077;BME280;40971;44.702;11.030;2022-07-12T01:29:16;101603.91;;;19.73;96.61
55077;BME280;40971;44.702;11.030;2022-07-12T01:31:42;101560.97;;;19.45;96.54
55077;BME280;40971;44.702;11.030;2022-07-12T01:34:08;101641.38;;;19.91;96.63
55077;BME280;40971;44.702;11.030;2022-07-12T01:36:34;101656.44;;;20.01;96.56
55077;BME280;40971;44.702;11.030;2022-07-12T01:39:03;101652.31;;;19.97;96.57
55077;BME280;40971;44.702;11.030;2022-07-12T01:41:28;101656.78;;;19.97;96.95
55077;BME280;40971;44.702;11.030;2022-07-12T01:43:54;101649.06;;;19.94;97.29
55077;BME280;40971;44.702;11.030;2022-07-12T01:46:19;101602.47;;;19.69;97.23
55077;BME280;40971;44.702;11.030;2022-07-12T01:48:45;101647.66;;;20.01;97.18
55077;BME280;40971;44.702;11.030;2022-07-12T01:51:10;101645.22;;;19.98;97.09
55077;BME280;40971;44.702;11.030;2022-07-12T01:53:36;101627.16;;;19.92;97.09
55077;BME280;40971;44.702;11.030;2022-07-12T01:56:03;101650.75;;;20.06;97.15
55077;BME280;40971;44.702;11.030;2022-07-12T01:58:29;101627.28;;;19.90;97.18
55077;BME280;40971;44.702;11.030;2022-07-12T02:00:54;101647.66;;;20.01;97.32
55077;BME280;40971;44.702;11.030;2022-07-12T02:03:20;101640.41;;;19.92;97.62
55077;BME280;40971;44.702;11.030;2022-07-12T02:05:46;101603.53;;;19.66;97.77
55077;BME280;40971;44.702;11.030;2022-07-12T02:08:12;101622.47;;;19.84;97.64
55077;BME280;40971;44.702;11.030;2022-07-12T02:10:39;101579.19;;;19.61;97.75
55077;BME280;40971;44.702;11.030;2022-07-12T02:13:05;101648.69;;;19.98;97.98
55077;BME280;40971;44.702;11.030;2022-07-12T02:15:30;101633.78;;;19.86;98.18
55077;BME280;40971;44.702;11.030;2022-07-12T02:17:56;101653.28;;;19.96;98.47
55077;BME280;40971;44.702;11.030;2022-07-12T02:20:22;101647.13;;;19.96;98.31
55077;BME280;40971;44.702;11.030;2022-07-12T02:22:47;101640.91;;;19.86;98.32
55077;BME280;40971;44.702;11.030;2022-07-12T02:25:13;101591.84;;;19.58;98.64
55077;BME280;40971;44.702;11.030;2022-07-12T02:27:39;101654.88;;;19.99;98.60
55077;BME280;40971;44.702;11.030;2022-07-12T02:30:07;101664.28;;;20.03;98.67
55077;BME280;40971;44.702;11.030;2022-07-12T02:32:32;101662.47;;;20.03;98.93
55077;BME280;40971;44.702;11.030;2022-07-12T02:34:58;101681.88;;;20.04;98.66
55077;BME280;40971;44.702;11.030;2022-07-12T02:37:24;101679.22;;;20.04;99.03
55077;BME280;40971;44.702;11.030;2022-07-12T02:39:50;101663.56;;;20.01;98.86
55077;BME280;40971;44.702;11.030;2022-07-12T02:42:15;101660.53;;;20.05;99.00
55077;BME280;40971;44.702;11.030;2022-07-12T02:44:41;101662.47;;;20.03;98.71
55077;BME280;40971;44.702;11.030;2022-07-12T02:47:06;101673.28;;;20.11;98.50
55077;BME280;40971;44.702;11.030;2022-07-12T02:49:32;101662.47;;;20.03;99.07
55077;BME280;40971;44.702;11.030;2022-07-12T02:51:58;101668.84;;;20.12;98.97
55077;BME280;40971;44.702;11.030;2022-07-12T02:54:23;101651.97;;;20.02;98.88
55077;BME280;40971;44.702;11.030;2022-07-12T02:56:49;101671.25;;;20.15;98.75
55077;BME280;40971;44.702;11.030;2022-07-12T02:59:14;101667.88;;;20.13;98.46
55077;BME280;40971;44.702;11.030;2022-07-12T03:01:40;101614.63;;;19.82;98.30
55077;BME280;40971;44.702;11.030;2022-07-12T03:04:05;101686.06;;;20.29;97.74
55077;BME280;40971;44.702;11.030;2022-07-12T03:06:31;101661.38;;;20.17;97.89
55077;BME280;40971;44.702;11.030;2022-07-12T03:08:56;101682.22;;;20.33;97.65
55077;BME280;40971;44.702;11.030;2022-07-12T03:11:22;101694.78;;;20.42;97.19
55077;BME280;40971;44.702;11.030;2022-07-12T03:13:47;101686.19;;;20.38;96.87
55077;BME280;40971;44.702;11.030;2022-07-12T03:16:13;101685.84;;;20.43;96.96
55077;BME280;40971;44.702;11.030;2022-07-12T03:18:41;101674.13;;;20.34;96.95
55077;BME280;40971;44.702;11.030;2022-07-12T03:21:09;101693.69;;;20.45;97.07
55077;BME280;40971;44.702;11.030;2022-07-12T03:23:34;101667.16;;;20.33;97.04
55077;BME280;40971;44.702;11.030;2022-07-12T03:26:00;101695.47;;;20.44;97.21
55077;BME280;40971;44.702;11.030;2022-07-12T03:28:26;101696.66;;;20.40;97.44
55077;BME280;40971;44.702;11.030;2022-07-12T03:30:51;101680.75;;;20.40;96.69
55077;BME280;40971;44.702;11.030;2022-07-12T03:33:17;101678.22;;;20.38;96.90
55077;BME280;40971;44.702;11.030;2022-07-12T03:35:43;101685.97;;;20.53;96.25
55077;BME280;40971;44.702;11.030;2022-07-12T03:38:08;101646.75;;;20.34;95.91
55077;BME280;40971;44.702;11.030;2022-07-12T03:40:33;101661.25;;;20.41;95.66
55077;BME280;40971;44.702;11.030;2022-07-12T03:43:00;101696.53;;;20.64;95.51
55077;BME280;40971;44.702;11.030;2022-07-12T03:45:26;101686.66;;;20.55;95.79
55077;BME280;40971;44.702;11.030;2022-07-12T03:47:51;101688.97;;;20.48;96.25
55077;BME280;40971;44.702;11.030;2022-07-12T03:50:20;101634.72;;;20.19;96.34
55077;BME280;40971;44.702;11.030;2022-07-12T03:52:45;101680.03;;;20.38;96.50
55077;BME280;40971;44.702;11.030;2022-07-12T03:55:13;101690.69;;;20.49;96.45
55077;BME280;40971;44.702;11.030;2022-07-12T03:57:39;101642.19;;;20.25;96.31
55077;BME280;40971;44.702;11.030;2022-07-12T04:00:06;101691.53;;;20.50;96.19
55077;BME280;40971;44.702;11.030;2022-07-12T04:02:37;101700.91;;;20.54;96.20
55077;BME280;40971;44.702;11.030;2022-07-12T04:05:04;101656.53;;;20.22;95.60
55077;BME280;40971;44.702;11.030;2022-07-12T04:07:30;101694.03;;;20.40;97.25
55077;BME280;40971;44.702;11.030;2022-07-12T04:09:55;101702.13;;;20.50;97.18
55077;BME280;40971;44.702;11.030;2022-07-12T04:12:20;101694.25;;;20.48;96.38
55077;BME280;40971;44.702;11.030;2022-07-12T04:14:46;101676.28;;;20.40;96.14
55077;BME280;40971;44.702;11.030;2022-07-12T04:17:11;101704.16;;;20.46;97.33
55077;BME280;40971;44.702;11.030;2022-07-12T04:19:37;101660.41;;;20.18;98.39
55077;BME280;40971;44.702;11.030;2022-07-12T04:22:02;101695.34;;;20.23;99.07
55077;BME280;40971;44.702;11.030;2022-07-12T04:24:28;101612.94;;;19.70;100.00
55077;BME280;40971;44.702;11.030;2022-07-12T04:26:53;101714.91;;;20.22;100.00
55077;BME280;40971;44.702;11.030;2022-07-12T04:29:19;101713.34;;;20.20;100.00
55077;BME280;40971;44.702;11.030;2022-07-12T04:31:45;101656.66;;;19.98;100.00
55077;BME280;40971;44.702;11.030;2022-07-12T04:34:11;101658.38;;;19.99;100.00
55077;BME280;40971;44.702;11.030;2022-07-12T04:36:36;101711.41;;;20.44;100.00
55077;BME280;40971;44.702;11.030;2022-07-12T04:39:08;101723.22;;;20.51;99.79
55077;BME280;40971;44.702;11.030;2022-07-12T04:41:33;101697.88;;;20.36;100.00
55077;BME280;40971;44.702;11.030;2022-07-12T04:44:06;101726.22;;;20.58;100.00
55077;BME280;40971;44.702;11.030;2022-07-12T04:46:48;101695.47;;;20.55;99.97
55077;BME280;40971;44.702;11.030;2022-07-12T04:49:14;101742.72;;;20.84;98.35
55077;BME280;40971;44.702;11.030;2022-07-12T04:51:40;101753.16;;;20.96;98.45
55077;BME280;40971;44.702;11.030;2022-07-12T04:54:05;101682.78;;;20.70;98.10
55077;BME280;40971;44.702;11.030;2022-07-12T04:56:31;101743.34;;;21.19;97.53
55077;BME280;40971;44.702;11.030;2022-07-12T04:58:56;101717.25;;;21.13;95.60
55077;BME280;40971;44.702;11.030;2022-07-12T05:01:26;101743.66;;;21.37;95.04
55077;BME280;40971;44.702;11.030;2022-07-12T05:03:52;101748.19;;;21.46;93.05
55077;BME280;40971;44.702;11.030;2022-07-12T05:06:17;101773.03;;;21.77;91.20
55077;BME280;40971;44.702;11.030;2022-07-12T05:08:45;101740.69;;;21.72;90.91
55077;BME280;40971;44.702;11.030;2022-07-12T05:11:10;101762.81;;;21.73;91.25
55077;BME280;40971;44.702;11.030;2022-07-12T05:13:36;101724.41;;;21.45;91.90
55077;BME280;40971;44.702;11.030;2022-07-12T05:16:01;101733.34;;;21.65;91.30
55077;BME280;40971;44.702;11.030;2022-07-12T05:18:27;101769.84;;;21.83;91.24
55077;BME280;40971;44.702;11.030;2022-07-12T05:20:52;101765.84;;;21.89;91.85
55077;BME280;40971;44.702;11.030;2022-07-12T05:23:19;101767.47;;;22.01;89.78
55077;BME280;40971;44.702;11.030;2022-07-12T05:25:45;101742.78;;;21.99;89.33
55077;BME280;40971;44.702;11.030;2022-07-12T05:28:10;101723.72;;;21.94;89.60
55077;BME280;40971;44.702;11.030;2022-07-12T05:30:36;101633.88;;;21.37;88.76
55077;BME280;40971;44.702;11.030;2022-07-12T05:33:05;101699.00;;;21.73;88.32
55077;BME280;40971;44.702;11.030;2022-07-12T05:35:30;101773.69;;;22.11;88.58
55077;BME280;40971;44.702;11.030;2022-07-12T05:37:56;101759.56;;;22.11;89.62
55077;BME280;40971;44.702;11.030;2022-07-12T05:40:21;101761.03;;;22.25;89.05
55077;BME280;40971;44.702;11.030;2022-07-12T05:42:47;101724.06;;;22.01;87.71
55077;BME280;40971;44.702;11.030;2022-07-12T05:45:12;101688.16;;;21.85;87.51
55077;BME280;40971;44.702;11.030;2022-07-12T05:47:38;101764.59;;;22.35;87.59
55077;BME280;40971;44.702;11.030;2022-07-12T05:50:04;101736.22;;;22.24;86.19
55077;BME280;40971;44.702;11.030;2022-07-12T05:52:30;101776.84;;;22.57;87.39
55077;BME280;40971;44.702;11.030;2022-07-12T05:55:14;101773.91;;;22.60;86.94
55077;BME280;40971;44.702;11.030;2022-07-12T05:57:39;101766.34;;;22.55;85.72
55077;BME280;40971;44.702;11.030;2022-07-12T06:00:05;101775.31;;;22.64;86.93
55077;BME280;40971;44.702;11.030;2022-07-12T06:02:31;101774.81;;;22.79;86.25
55077;BME280;40971;44.702;11.030;2022-07-12T06:04:56;101767.16;;;22.86;84.17
55077;BME280;40971;44.702;11.030;2022-07-12T06:07:23;101756.38;;;22.88;84.56
55077;BME280;40971;44.702;11.030;2022-07-12T06:09:48;101760.00;;;22.87;85.12
55077;BME280;40971;44.702;11.030;2022-07-12T06:12:14;101723.06;;;22.72;83.11
55077;BME280;40971;44.702;11.030;2022-07-12T06:14:39;101784.31;;;23.22;83.12
55077;BME280;40971;44.702;11.030;2022-07-12T06:17:05;101755.28;;;23.19;82.27
55077;BME280;40971;44.702;11.030;2022-07-12T06:19:34;101786.25;;;23.49;81.41
55077;BME280;40971;44.702;11.030;2022-07-12T06:21:59;101788.38;;;23.55;80.84
55077;BME280;40971;44.702;11.030;2022-07-12T06:24:25;101770.41;;;23.48;80.12
55077;BME280;40971;44.702;11.030;2022-07-12T06:26:51;101715.84;;;23.32;80.04
55077;BME280;40971;44.702;11.030;2022-07-12T06:29:16;101766.66;;;23.69;78.00
55077;BME280;40971;44.702;11.030;2022-07-12T06:31:41;101776.75;;;23.85;79.25
55077;BME280;40971;44.702;11.030;2022-07-12T06:34:07;101738.84;;;23.72;77.98
55077;BME280;40971;44.702;11.030;2022-07-12T06:36:32;101786.94;;;23.99;76.53
55077;BME280;40971;44.702;11.030;2022-07-12T06:38:58;101721.19;;;23.61;76.19
55077;BME280;40971;44.702;11.030;2022-07-12T06:41:23;101800.78;;;24.22;76.76
55077;BME280;40971;44.702;11.030;2022-07-12T06:43:50;101761.31;;;24.16;74.53
55077;BME280;40971;44.702;11.030;2022-07-12T06:46:15;101766.50;;;24.27;75.12
55077;BME280;40971;44.702;11.030;2022-07-12T06:48:41;101745.28;;;24.26;74.60
55077;BME280;40971;44.702;11.030;2022-07-12T06:51:06;101727.84;;;24.32;74.13
55077;BME280;40971;44.702;11.030;2022-07-12T06:53:35;101733.72;;;24.35;73.62
55077;BME280;40971;44.702;11.030;2022-07-12T06:56:00;101805.44;;;24.85;73.39
55077;BME280;40971;44.702;11.030;2022-07-12T06:58:25;101796.53;;;25.04;73.70
55077;BME280;40971;44.702;11.030;2022-07-12T07:00:51;101808.44;;;25.27;74.26
55077;BME280;40971;44.702;11.030;2022-07-12T07:03:16;101809.06;;;25.39;69.99
55077;BME280;40971;44.702;11.030;2022-07-12T07:05:42;101780.88;;;25.44;69.68
55077;BME280;40971;44.702;11.030;2022-07-12T07:08:07;101778.00;;;25.64;69.24
55077;BME280;40971;44.702;11.030;2022-07-12T07:10:33;101792.56;;;26.05;67.83
55077;BME280;40971;44.702;11.030;2022-07-12T07:12:58;101798.91;;;26.30;66.90
55077;BME280;40971;44.702;11.030;2022-07-12T07:15:25;101792.66;;;26.21;65.48
55077;BME280;40971;44.702;11.030;2022-07-12T07:17:51;101795.19;;;26.23;63.90
55077;BME280;40971;44.702;11.030;2022-07-12T07:20:16;101792.13;;;26.44;63.07
55077;BME280;40971;44.702;11.030;2022-07-12T07:22:42;101812.72;;;26.77;63.58
55077;BME280;40971;44.702;11.030;2022-07-12T07:25:07;101810.38;;;26.82;63.43
55077;BME280;40971;44.702;11.030;2022-07-12T07:27:33;101763.00;;;26.15;62.36
55077;BME280;40971;44.702;11.030;2022-07-12T07:29:58;101776.63;;;26.29;62.40
55077;BME280;40971;44.702;11.030;2022-07-12T07:32:42;101796.59;;;26.35;64.43
55077;BME280;40971;44.702;11.030;2022-07-12T07:35:08;101770.06;;;25.90;63.45
55077;BME280;40971;44.702;11.030;2022-07-12T07:37:34;101771.63;;;25.74;64.18
55077;BME280;40971;44.702;11.030;2022-07-12T07:40:01;101770.31;;;25.78;64.78
55077;BME280;40971;44.702;11.030;2022-07-12T07:42:27;101812.47;;;25.85;64.62
55077;BME280;40971;44.702;11.030;2022-07-12T07:44:52;101817.41;;;25.54;65.63
55077;BME280;40971;44.702;11.030;2022-07-12T07:47:18;101829.13;;;25.70;65.86
55077;BME280;40971;44.702;11.030;2022-07-12T07:49:43;101808.97;;;25.84;65.21
55077;BME280;40971;44.702;11.030;2022-07-12T07:52:08;101804.78;;;25.82;64.89
55077;BME280;40971;44.702;11.030;2022-07-12T07:54:34;101822.75;;;26.15;64.28
55077;BME280;40971;44.702;11.030;2022-07-12T07:56:59;101782.59;;;26.49;63.38
55077;BME280;40971;44.702;11.030;2022-07-12T07:59:25;101827.22;;;27.01;61.06
55077;BME280;40971;44.702;11.030;2022-07-12T08:01:51;101797.47;;;26.86;60.59
55077;BME280;40971;44.702;11.030;2022-07-12T08:04:20;101806.22;;;26.96;60.72
55077;BME280;40971;44.702;11.030;2022-07-12T08:06:47;101815.56;;;27.50;60.65
55077;BME280;40971;44.702;11.030;2022-07-12T08:09:12;101807.53;;;27.58;59.03
55077;BME280;40971;44.702;11.030;2022-07-12T08:11:38;101773.28;;;27.36;58.71
55077;BME280;40971;44.702;11.030;2022-07-12T08:14:05;101807.13;;;27.13;60.73
55077;BME280;40971;44.702;11.030;2022-07-12T08:16:31;101815.38;;;27.27;60.21
55077;BME280;40971;44.702;11.030;2022-07-12T08:18:57;101797.59;;;27.35;60.56
55077;BME280;40971;44.702;11.030;2022-07-12T08:21:23;101783.50;;;27.16;61.07
55077;BME280;40971;44.702;11.030;2022-07-12T08:23:49;101762.16;;;26.98;61.01
55077;BME280;40971;44.702;11.030;2022-07-12T08:26:15;101738.75;;;27.17;60.95
55077;BME280;40971;44.702;11.030;2022-07-12T08:28:40;101804.50;;;27.94;56.69
55077;BME280;40971;44.702;11.030;2022-07-12T08:31:06;101813.38;;;28.03;57.28
55077;BME280;40971;44.702;11.030;2022-07-12T08:33:32;101739.59;;;27.50;57.88
55077;BME280;40971;44.702;11.030;2022-07-12T08:35:57;101804.31;;;28.28;56.23
55077;BME280;40971;44.702;11.030;2022-07-12T08:38:23;101823.53;;;28.48;57.42
55077;BME280;40971;44.702;11.030;2022-07-12T08:40:53;101815.88;;;28.76;54.49
55077;BME280;40971;44.702;11.030;2022-07-12T08:43:18;101801.91;;;28.81;53.04
55077;BME280;40971;44.702;11.030;2022-07-12T08:45:44;101811.00;;;28.71;53.47
55077;BME280;40971;44.702;11.030;2022-07-12T08:48:09;101803.94;;;28.70;53.71
55077;BME280;40971;44.702;11.030;2022-07-12T08:50:37;101822.41;;;28.90;53.69
55077;BME280;40971;44.702;11.030;2022-07-12T08:53:10;101792.13;;;29.42;53.17
55077;BME280;40971;44.702;11.030;2022-07-12T08:55:36;101760.09;;;29.09;51.79
55077;BME280;40971;44.702;11.030;2022-07-12T08:58:04;101797.25;;;29.28;51.55
55077;BME280;40971;44.702;11.030;2022-07-12T09:00:39;101808.13;;;29.12;52.98
55077;BME280;40971;44.702;11.030;2022-07-12T09:03:04;101802.38;;;28.92;53.78
55077;BME280;40971;44.702;11.030;2022-07-12T09:05:33;101780.44;;;28.72;54.38
55077;BME280;40971;44.702;11.030;2022-07-12T09:08:07;101742.75;;;28.50;53.85
55077;BME280;40971;44.702;11.030;2022-07-12T09:10:34;101803.34;;;29.45;53.51
55077;BME280;40971;44.702;11.030;2022-07-12T09:13:00;101807.50;;;29.56;51.98
55077;BME280;40971;44.702;11.030;2022-07-12T09:15:25;101746.09;;;29.14;52.44
55077;BME280;40971;44.702;11.030;2022-07-12T09:18:01;101794.88;;;29.33;50.51
55077;BME280;40971;44.702;11.030;2022-07-12T09:22:58;101811.00;;;29.33;50.95
55077;BME280;40971;44.702;11.030;2022-07-12T09:25:24;101739.41;;;29.10;51.56
55077;BME280;40971;44.702;11.030;2022-07-12T09:27:52;101814.31;;;29.67;50.71
55077;BME280;40971;44.702;11.030;2022-07-12T09:30:19;101824.00;;;30.13;49.49
55077;BME280;40971;44.702;11.030;2022-07-12T09:32:53;101806.88;;;29.69;49.29
55077;BME280;40971;44.702;11.030;2022-07-12T09:35:40;101822.97;;;29.77;49.95
55077;BME280;40971;44.702;11.030;2022-07-12T09:38:25;101826.56;;;29.69;49.42
55077;BME280;40971;44.702;11.030;2022-07-12T09:40:51;101781.84;;;29.45;49.27
55077;BME280;40971;44.702;11.030;2022-07-12T09:43:17;101822.09;;;29.99;49.35
55077;BME280;40971;44.702;11.030;2022-07-12T09:45:43;101812.25;;;29.91;49.28
55077;BME280;40971;44.702;11.030;2022-07-12T09:48:09;101819.63;;;30.12;49.81
55077;BME280;40971;44.702;11.030;2022-07-12T09:50:38;101814.22;;;30.86;49.68
55077;BME280;40971;44.702;11.030;2022-07-12T09:53:04;101772.91;;;31.07;48.31
55077;BME280;40971;44.702;11.030;2022-07-12T09:55:32;101809.47;;;30.73;50.99
55077;BME280;40971;44.702;11.030;2022-07-12T09:58:00;101770.34;;;29.89;52.51
55077;BME280;40971;44.702;11.030;2022-07-12T10:00:27;101807.19;;;30.41;53.11
55077;BME280;40971;44.702;11.030;2022-07-12T10:02:55;101787.75;;;30.60;53.27
55077;BME280;40971;44.702;11.030;2022-07-12T10:05:24;101752.34;;;30.19;51.63
55077;BME280;40971;44.702;11.030;2022-07-12T10:07:50;101795.47;;;30.19;53.47
55077;BME280;40971;44.702;11.030;2022-07-12T10:10:16;101774.53;;;29.54;54.03
55077;BME280;40971;44.702;11.030;2022-07-12T10:12:42;101813.56;;;29.73;54.18
55077;BME280;40971;44.702;11.030;2022-07-12T10:15:17;101788.97;;;29.61;53.04
55077;BME280;40971;44.702;11.030;2022-07-12T10:17:52;101778.97;;;29.24;53.56
55077;BME280;40971;44.702;11.030;2022-07-12T10:20:24;101799.31;;;29.26;55.69
55077;BME280;40971;44.702;11.030;2022-07-12T10:22:55;101785.41;;;29.15;54.28
55077;BME280;40971;44.702;11.030;2022-07-12T10:25:32;101757.06;;;29.04;54.86
55077;BME280;40971;44.702;11.030;2022-07-12T10:27:59;101792.91;;;29.73;54.60
55077;BME280;40971;44.702;11.030;2022-07-12T10:30:25;101794.91;;;29.56;52.39
55077;BME280;40971;44.702;11.030;2022-07-12T10:32:55;101788.47;;;29.34;56.12
55077;BME280;40971;44.702;11.030;2022-07-12T10:35:26;101780.09;;;29.07;55.07
55077;BME280;40971;44.702;11.030;2022-07-12T10:40:37;101789.00;;;29.76;53.85
55077;BME280;40971;44.702;11.030;2022-07-12T10:45:30;101743.69;;;29.94;51.48
55077;BME280;40971;44.702;11.030;2022-07-12T10:47:58;101788.25;;;29.82;51.20
55077;BME280;40971;44.702;11.030;2022-07-12T10:56:13;101776.00;;;31.04;49.99
55077;BME280;40971;44.702;11.030;2022-07-12T10:58:46;101779.25;;;31.14;48.02
55077;BME280;40971;44.702;11.030;2022-07-12T11:01:16;101772.81;;;31.15;47.05
55077;BME280;40971;44.702;11.030;2022-07-12T11:03:55;101785.50;;;30.78;46.32
55077;BME280;40971;44.702;11.030;2022-07-12T11:06:25;101724.50;;;30.12;45.73
55077;BME280;40971;44.702;11.030;2022-07-12T11:08:59;101749.66;;;30.04;45.79
55077;BME280;40971;44.702;11.030;2022-07-12T11:14:04;101681.78;;;30.81;47.25
55077;BME280;40971;44.702;11.030;2022-07-12T11:16:30;101754.56;;;31.38;46.74
55077;BME280;40971;44.702;11.030;2022-07-12T11:18:56;101764.66;;;31.51;48.54
55077;BME280;40971;44.702;11.030;2022-07-12T11:21:22;101767.94;;;31.47;47.92
55077;BME280;40971;44.702;11.030;2022-07-12T11:23:49;101731.38;;;31.23;46.16
55077;BME280;40971;44.702;11.030;2022-07-12T11:26:15;101749.50;;;31.50;47.95
55077;BME280;40971;44.702;11.030;2022-07-12T11:28:42;101745.31;;;31.48;47.56
55077;BME280;40971;44.702;11.030;2022-07-12T11:31:11;101757.06;;;31.40;48.07
55077;BME280;40971;44.702;11.030;2022-07-12T11:33:39;101735.19;;;31.28;47.53
55077;BME280;40971;44.702;11.030;2022-07-12T11:36:10;101728.44;;;31.18;47.75
55077;BME280;40971;44.702;11.030;2022-07-12T11:38:41;101681.06;;;31.71;47.99
55077;BME280;40971;44.702;11.030;2022-07-12T11:41:07;101733.50;;;32.11;46.11
55077;BME280;40971;44.702;11.030;2022-07-12T11:43:35;101718.75;;;31.51;46.65
55077;BME280;40971;44.702;11.030;2022-07-12T11:46:03;101696.03;;;31.67;47.36
55077;BME280;40971;44.702;11.030;2022-07-12T11:48:29;101717.97;;;31.85;45.58
55077;BME280;40971;44.702;11.030;2022-07-12T11:51:03;101685.09;;;31.75;43.57
55077;BME280;40971;44.702;11.030;2022-07-12T11:53:30;101716.44;;;32.58;42.12
55077;BME280;40971;44.702;11.030;2022-07-12T11:55:59;101720.22;;;32.71;41.47
55077;BME280;40971;44.702;11.030;2022-07-12T11:58:26;101724.19;;;31.79;43.90
55077;BME280;40971;44.702;11.030;2022-07-12T12:00:52;101691.59;;;30.89;45.22
55077;BME280;40971;44.702;11.030;2022-07-12T12:03:19;101645.09;;;29.78;46.55
55077;BME280;40971;44.702;11.030;2022-07-12T12:05:51;101707.25;;;30.57;47.25
55077;BME280;40971;44.702;11.030;2022-07-12T12:08:17;101725.63;;;31.26;47.70
55077;BME280;40971;44.702;11.030;2022-07-12T12:10:54;101732.97;;;31.38;46.10
55077;BME280;40971;44.702;11.030;2022-07-12T12:13:21;101717.19;;;31.35;44.27
55077;BME280;40971;44.702;11.030;2022-07-12T12:15:58;101718.31;;;31.48;44.28
55077;BME280;40971;44.702;11.030;2022-07-12T12:20:59;101706.94;;;31.24;45.15
55077;BME280;40971;44.702;11.030;2022-07-12T12:23:25;101703.16;;;31.04;45.04
55077;BME280;40971;44.702;11.030;2022-07-12T12:25:50;101708.16;;;31.07;44.89
55077;BME280;40971;44.702;11.030;2022-07-12T12:28:16;101705.88;;;31.04;44.49
55077;BME280;40971;44.702;11.030;2022-07-12T12:30:55;101665.59;;;31.02;45.77
55077;BME280;40971;44.702;11.030;2022-07-12T12:38:37;101689.09;;;31.58;41.26
55077;BME280;40971;44.702;11.030;2022-07-12T12:41:02;101684.56;;;31.93;41.80
55077;BME280;40971;44.702;11.030;2022-07-12T12:43:30;101688.59;;;32.10;40.21
55077;BME280;40971;44.702;11.030;2022-07-12T12:45:56;101663.53;;;31.82;42.58
55077;BME280;40971;44.702;11.030;2022-07-12T12:48:24;101692.63;;;31.86;44.50
55077;BME280;40971;44.702;11.030;2022-07-12T12:50:51;101625.53;;;31.55;40.86
55077;BME280;40971;44.702;11.030;2022-07-12T12:53:24;101697.66;;;32.37;41.24
55077;BME280;40971;44.702;11.030;2022-07-12T12:55:54;101696.22;;;32.35;40.30
55077;BME280;40971;44.702;11.030;2022-07-12T12:58:23;101675.88;;;32.45;39.97
55077;BME280;40971;44.702;11.030;2022-07-12T13:00:51;101693.97;;;32.58;40.21
55077;BME280;40971;44.702;11.030;2022-07-12T13:03:18;101676.69;;;31.98;42.58